Observations for BOSCOMBE DOWN, United Kingdom (EGDM)

EGDM 201950Z AUTO 19009KT 9999 BKN008/// SCT030/// BKN060/// 08/07 Q1021
EGDM 201850Z AUTO 20011KT 9999 FEW012/// SCT019/// BKN070/// 09/07 Q1021
EGDM 201750Z 20011KT 9999 BKN018 BKN060 09/07 Q1020 WHT 
EGDM 201650Z 20010KT 9999 SCT018 SCT028 09/07 Q1020 WHT NOSIG   
EGDM 201550Z 21012KT 9999 FEW018 BKN032 10/07 Q1020 BLU NOSIG   
EGDM 201450Z 21014KT 9999 FEW018 BKN040 11/07 Q1019 BLU TEMPO SCT018 WHT
EGDM 201350Z 21015KT 9999 SCT018 SCT036 11/07 Q1019 WHT TEMPO FEW020 BLU
EGDM 201250Z 21013KT 9999 SCT018 BKN032 10/07 Q1019 WHT TEMPO FEW020 BLU
EGDM 201150Z 20011KT 9999 FEW014 SCT018 BKN032 10/07 Q1019 WHT BECMG FEW018 BLU 
EGDM 201050Z 19013KT 9999 SCT010 BKN035 09/07 Q1019 GRN TEMPO FEW010 BLU
EGDM 201022Z 19012KT 9999 FEW010 BKN035 10/08 Q1019 BLU TEMPO SCT015 WHT
EGDM 201022Z 19012KT 9999 FEW010 BKN035 10/08 Q1019 BLU TEMPO SCT015 WHT
EGDM 200950Z 20010KT 9999 SCT010 BKN032 09/07 Q1019 GRN BECMG FEW010 BLU
EGDM 200850Z 20009KT 9999 -RA BKN008 BKN018 08/07 Q1019 GRN BECMG FEW008 SCT018 WHT 
EGDM 200750Z 19007KT 9999 SCT009 BKN018 07/06 Q1018 GRN BECMG FEW009 BKN018 WHT 
EGDM 200650Z 20010KT 9999 BKN010 08/06 Q1017 GRN
EGDM 200550Z AUTO 20009KT 9999 BKN009/// 08/06 Q1017
EGDM 200450Z AUTO 19007KT 9999 SCT011/// SCT018/// BKN038/// 07/06 Q1017
EGDM 200350Z AUTO 20006KT 9999 FEW011/// BKN038/// 07/06 Q1017  
EGDM 200250Z AUTO 20008KT 9999 FEW012/// SCT038/// BKN110/// 07/06 Q1017
EGDM 200150Z AUTO 19008KT 9999 BKN110/// 07/06 Q1018
EGDM 200050Z AUTO 19009KT 8000 BR FEW040/// BKN120/// 06/06 Q1018   
EGDM 192350Z AUTO 19008KT 9999 FEW019/// BKN120/// 06/05 Q1018  
EGDM 192250Z AUTO 19007KT 9999 FEW011/// BKN120/// 06/06 Q1018  
EGDM 192150Z AUTO 19007KT 9999 OVC130/// 06/05 Q1018
EGDM 192050Z AUTO 19007KT 9999 OVC100/// 06/05 Q1018
EGDM 191950Z AUTO 19007KT 9999 OVC120/// 06/05 Q1018